Аэропорт: Гостомель. Киев

ICAO: UKKM

METAR:
2019-07-23 18:30:00
UKKM 231830Z AUTO 31004MPS 9999 // NSC 19/11 Q1013
METAR:
2019-07-23 11:09:00
TAF UKKM 231109Z 2312/2412 30005MPS 9999 BKN020 TEMPO 2322/2405 29005G10MPS 2100 -SHRA BR BKN005 SCT020CB TEMPO 2409/2412 33007G12MPS 2100 -SHRA BKN007 BKN020CB